sensor_id;sensor_type;location;lat;lon;timestamp;temperature;humidity
33761;DHT22;20084;47.912;19.044;2023-04-25T00:01:29;12.80;99.90
33761;DHT22;20084;47.912;19.044;2023-04-25T00:03:54;12.80;99.90
33761;DHT22;20084;47.912;19.044;2023-04-25T00:06:20;12.80;99.90
33761;DHT22;20084;47.912;19.044;2023-04-25T00:08:45;12.80;99.90
33761;DHT22;20084;47.912;19.044;2023-04-25T00:11:11;12.80;99.90
33761;DHT22;20084;47.912;19.044;2023-04-25T00:13:36;12.90;99.90
33761;DHT22;20084;47.912;19.044;2023-04-25T00:16:02;12.90;99.90
33761;DHT22;20084;47.912;19.044;2023-04-25T00:18:28;13.00;99.90
33761;DHT22;20084;47.912;19.044;2023-04-25T00:20:54;13.10;99.90
33761;DHT22;20084;47.912;19.044;2023-04-25T00:23:20;13.10;99.90
33761;DHT22;20084;47.912;19.044;2023-04-25T00:25:48;13.20;99.90
33761;DHT22;20084;47.912;19.044;2023-04-25T00:28:14;13.10;99.90
33761;DHT22;20084;47.912;19.044;2023-04-25T00:30:40;13.20;99.90
33761;DHT22;20084;47.912;19.044;2023-04-25T00:33:06;13.20;99.90
33761;DHT22;20084;47.912;19.044;2023-04-25T00:35:32;13.10;99.90
33761;DHT22;20084;47.912;19.044;2023-04-25T00:37:58;13.00;99.90
33761;DHT22;20084;47.912;19.044;2023-04-25T00:40:23;13.10;99.90
33761;DHT22;20084;47.912;19.044;2023-04-25T00:42:49;13.10;99.90
33761;DHT22;20084;47.912;19.044;2023-04-25T00:45:16;13.20;99.90
33761;DHT22;20084;47.912;19.044;2023-04-25T00:47:42;13.20;99.90
33761;DHT22;20084;47.912;19.044;2023-04-25T00:50:08;13.20;99.90
33761;DHT22;20084;47.912;19.044;2023-04-25T00:52:34;13.10;99.90
33761;DHT22;20084;47.912;19.044;2023-04-25T00:54:59;12.90;99.90
33761;DHT22;20084;47.912;19.044;2023-04-25T00:57:25;12.90;99.90
33761;DHT22;20084;47.912;19.044;2023-04-25T00:59:51;12.90;99.90
33761;DHT22;20084;47.912;19.044;2023-04-25T01:02:18;13.00;99.90
33761;DHT22;20084;47.912;19.044;2023-04-25T01:04:43;13.00;99.90
33761;DHT22;20084;47.912;19.044;2023-04-25T01:07:10;13.10;99.90
33761;DHT22;20084;47.912;19.044;2023-04-25T01:09:35;13.10;99.90
33761;DHT22;20084;47.912;19.044;2023-04-25T01:12:01;13.30;99.90
33761;DHT22;20084;47.912;19.044;2023-04-25T01:14:28;13.30;99.90
33761;DHT22;20084;47.912;19.044;2023-04-25T01:16:53;13.30;99.90
33761;DHT22;20084;47.912;19.044;2023-04-25T01:19:19;13.30;99.90
33761;DHT22;20084;47.912;19.044;2023-04-25T01:21:45;13.20;99.90
33761;DHT22;20084;47.912;19.044;2023-04-25T01:24:10;13.20;99.90
33761;DHT22;20084;47.912;19.044;2023-04-25T01:26:36;13.30;99.90
33761;DHT22;20084;47.912;19.044;2023-04-25T01:29:03;13.20;99.90
33761;DHT22;20084;47.912;19.044;2023-04-25T01:31:29;13.20;99.90
33761;DHT22;20084;47.912;19.044;2023-04-25T01:33:55;13.20;99.90
33761;DHT22;20084;47.912;19.044;2023-04-25T01:36:21;13.20;99.90
33761;DHT22;20084;47.912;19.044;2023-04-25T01:38:47;13.20;99.90
33761;DHT22;20084;47.912;19.044;2023-04-25T01:41:13;13.30;99.90
33761;DHT22;20084;47.912;19.044;2023-04-25T01:43:39;13.30;99.90
33761;DHT22;20084;47.912;19.044;2023-04-25T01:46:04;13.30;99.90
33761;DHT22;20084;47.912;19.044;2023-04-25T01:48:30;13.30;99.90
33761;DHT22;20084;47.912;19.044;2023-04-25T01:50:55;13.30;99.90
33761;DHT22;20084;47.912;19.044;2023-04-25T01:53:21;13.30;99.90
33761;DHT22;20084;47.912;19.044;2023-04-25T01:55:47;13.40;99.90
33761;DHT22;20084;47.912;19.044;2023-04-25T01:58:13;13.50;99.90
33761;DHT22;20084;47.912;19.044;2023-04-25T02:00:39;13.50;99.90
33761;DHT22;20084;47.912;19.044;2023-04-25T02:03:06;13.60;99.90
33761;DHT22;20084;47.912;19.044;2023-04-25T02:05:35;13.60;99.90
33761;DHT22;20084;47.912;19.044;2023-04-25T02:08:01;13.60;99.90
33761;DHT22;20084;47.912;19.044;2023-04-25T02:10:27;13.60;99.90
33761;DHT22;20084;47.912;19.044;2023-04-25T02:12:52;13.60;99.90
33761;DHT22;20084;47.912;19.044;2023-04-25T02:15:18;13.60;99.90
33761;DHT22;20084;47.912;19.044;2023-04-25T02:17:44;13.40;99.90
33761;DHT22;20084;47.912;19.044;2023-04-25T02:20:10;13.30;99.90
33761;DHT22;20084;47.912;19.044;2023-04-25T02:22:36;13.20;99.90
33761;DHT22;20084;47.912;19.044;2023-04-25T02:25:02;13.10;99.90
33761;DHT22;20084;47.912;19.044;2023-04-25T02:27:30;12.80;99.90
33761;DHT22;20084;47.912;19.044;2023-04-25T02:29:55;12.50;99.90
33761;DHT22;20084;47.912;19.044;2023-04-25T02:32:21;12.40;99.90
33761;DHT22;20084;47.912;19.044;2023-04-25T02:34:46;12.40;99.90
33761;DHT22;20084;47.912;19.044;2023-04-25T02:37:13;12.20;99.90
33761;DHT22;20084;47.912;19.044;2023-04-25T02:39:38;12.20;99.90
33761;DHT22;20084;47.912;19.044;2023-04-25T02:42:04;12.10;99.90
33761;DHT22;20084;47.912;19.044;2023-04-25T02:44:29;12.00;99.90
33761;DHT22;20084;47.912;19.044;2023-04-25T02:46:55;12.00;99.90
33761;DHT22;20084;47.912;19.044;2023-04-25T02:49:20;12.00;99.90
33761;DHT22;20084;47.912;19.044;2023-04-25T02:51:46;11.90;99.90
33761;DHT22;20084;47.912;19.044;2023-04-25T02:54:11;11.90;99.90
33761;DHT22;20084;47.912;19.044;2023-04-25T02:56:39;11.80;99.90
33761;DHT22;20084;47.912;19.044;2023-04-25T02:59:04;11.80;99.90
33761;DHT22;20084;47.912;19.044;2023-04-25T03:01:30;11.80;99.90
33761;DHT22;20084;47.912;19.044;2023-04-25T03:03:55;11.70;99.90
33761;DHT22;20084;47.912;19.044;2023-04-25T03:06:21;11.70;99.90
33761;DHT22;20084;47.912;19.044;2023-04-25T03:08:46;11.60;99.90
33761;DHT22;20084;47.912;19.044;2023-04-25T03:11:12;11.60;99.90
33761;DHT22;20084;47.912;19.044;2023-04-25T03:13:37;11.50;99.90
33761;DHT22;20084;47.912;19.044;2023-04-25T03:16:03;11.50;99.90
33761;DHT22;20084;47.912;19.044;2023-04-25T03:18:28;11.50;99.90
33761;DHT22;20084;47.912;19.044;2023-04-25T03:20:54;11.50;99.90
33761;DHT22;20084;47.912;19.044;2023-04-25T03:23:19;11.50;99.90
33761;DHT22;20084;47.912;19.044;2023-04-25T03:25:45;11.50;99.90
33761;DHT22;20084;47.912;19.044;2023-04-25T03:28:10;11.40;99.90
33761;DHT22;20084;47.912;19.044;2023-04-25T03:30:36;11.40;99.90
33761;DHT22;20084;47.912;19.044;2023-04-25T03:33:02;11.40;99.90
33761;DHT22;20084;47.912;19.044;2023-04-25T03:35:27;11.30;99.90
33761;DHT22;20084;47.912;19.044;2023-04-25T03:37:53;11.20;99.90
33761;DHT22;20084;47.912;19.044;2023-04-25T03:40:18;11.30;99.90
33761;DHT22;20084;47.912;19.044;2023-04-25T03:42:44;11.20;99.90
33761;DHT22;20084;47.912;19.044;2023-04-25T03:45:09;11.20;99.90
33761;DHT22;20084;47.912;19.044;2023-04-25T03:47:35;11.30;99.90
33761;DHT22;20084;47.912;19.044;2023-04-25T03:50:00;11.20;99.90
33761;DHT22;20084;47.912;19.044;2023-04-25T03:52:27;11.20;99.90
33761;DHT22;20084;47.912;19.044;2023-04-25T03:54:53;11.20;99.90
33761;DHT22;20084;47.912;19.044;2023-04-25T03:57:18;11.10;99.90
33761;DHT22;20084;47.912;19.044;2023-04-25T03:59:43;11.10;99.90
33761;DHT22;20084;47.912;19.044;2023-04-25T04:02:10;11.00;99.90
33761;DHT22;20084;47.912;19.044;2023-04-25T04:04:35;11.00;99.90
33761;DHT22;20084;47.912;19.044;2023-04-25T04:07:01;10.90;99.90
33761;DHT22;20084;47.912;19.044;2023-04-25T04:09:27;10.90;99.90
33761;DHT22;20084;47.912;19.044;2023-04-25T04:11:53;10.90;99.90
33761;DHT22;20084;47.912;19.044;2023-04-25T04:14:18;10.90;99.90
33761;DHT22;20084;47.912;19.044;2023-04-25T04:16:44;10.90;99.90
33761;DHT22;20084;47.912;19.044;2023-04-25T04:19:10;10.90;99.90
33761;DHT22;20084;47.912;19.044;2023-04-25T04:21:35;10.90;99.90
33761;DHT22;20084;47.912;19.044;2023-04-25T04:24:01;10.90;99.90
33761;DHT22;20084;47.912;19.044;2023-04-25T04:26:27;10.90;99.90
33761;DHT22;20084;47.912;19.044;2023-04-25T04:28:52;10.80;99.90
33761;DHT22;20084;47.912;19.044;2023-04-25T04:31:19;10.80;99.90
33761;DHT22;20084;47.912;19.044;2023-04-25T04:33:45;10.80;99.90
33761;DHT22;20084;47.912;19.044;2023-04-25T04:36:11;10.90;99.90
33761;DHT22;20084;47.912;19.044;2023-04-25T04:38:37;11.00;99.90
33761;DHT22;20084;47.912;19.044;2023-04-25T04:41:02;11.00;99.90
33761;DHT22;20084;47.912;19.044;2023-04-25T04:43:28;11.10;99.90
33761;DHT22;20084;47.912;19.044;2023-04-25T04:45:55;11.00;99.90
33761;DHT22;20084;47.912;19.044;2023-04-25T04:48:22;11.10;99.90
33761;DHT22;20084;47.912;19.044;2023-04-25T04:50:47;11.20;99.90
33761;DHT22;20084;47.912;19.044;2023-04-25T04:53:13;11.20;99.90
33761;DHT22;20084;47.912;19.044;2023-04-25T04:55:39;11.20;99.90
33761;DHT22;20084;47.912;19.044;2023-04-25T04:58:06;11.30;99.90
33761;DHT22;20084;47.912;19.044;2023-04-25T05:00:32;11.30;99.90
33761;DHT22;20084;47.912;19.044;2023-04-25T05:02:58;11.30;99.90
33761;DHT22;20084;47.912;19.044;2023-04-25T05:05:24;11.40;99.90
33761;DHT22;20084;47.912;19.044;2023-04-25T05:07:50;11.60;99.90
33761;DHT22;20084;47.912;19.044;2023-04-25T05:10:16;11.60;99.90
33761;DHT22;20084;47.912;19.044;2023-04-25T05:12:42;11.60;99.90
33761;DHT22;20084;47.912;19.044;2023-04-25T05:15:07;11.50;99.90
33761;DHT22;20084;47.912;19.044;2023-04-25T05:17:33;11.50;99.90
33761;DHT22;20084;47.912;19.044;2023-04-25T05:19:58;11.50;99.90
33761;DHT22;20084;47.912;19.044;2023-04-25T05:22:24;11.50;99.90
33761;DHT22;20084;47.912;19.044;2023-04-25T05:24:49;11.40;99.90
33761;DHT22;20084;47.912;19.044;2023-04-25T05:27:17;11.40;99.90
33761;DHT22;20084;47.912;19.044;2023-04-25T05:29:42;11.30;99.90
33761;DHT22;20084;47.912;19.044;2023-04-25T05:32:08;11.10;99.90
33761;DHT22;20084;47.912;19.044;2023-04-25T05:34:34;11.00;99.90
33761;DHT22;20084;47.912;19.044;2023-04-25T05:37:00;10.90;99.90
33761;DHT22;20084;47.912;19.044;2023-04-25T05:39:26;10.80;99.90
33761;DHT22;20084;47.912;19.044;2023-04-25T05:41:52;10.80;99.90
33761;DHT22;20084;47.912;19.044;2023-04-25T05:44:17;10.90;99.90
33761;DHT22;20084;47.912;19.044;2023-04-25T05:46:43;10.80;99.90
33761;DHT22;20084;47.912;19.044;2023-04-25T05:49:08;10.70;99.90
33761;DHT22;20084;47.912;19.044;2023-04-25T05:51:34;10.70;99.90
33761;DHT22;20084;47.912;19.044;2023-04-25T05:53:59;10.70;99.90
33761;DHT22;20084;47.912;19.044;2023-04-25T05:56:25;10.70;99.90
33761;DHT22;20084;47.912;19.044;2023-04-25T05:58:50;10.80;99.90
33761;DHT22;20084;47.912;19.044;2023-04-25T06:01:16;10.80;99.90
33761;DHT22;20084;47.912;19.044;2023-04-25T06:03:42;10.70;99.90
33761;DHT22;20084;47.912;19.044;2023-04-25T06:06:08;10.60;99.90
33761;DHT22;20084;47.912;19.044;2023-04-25T06:08:34;10.50;99.90
33761;DHT22;20084;47.912;19.044;2023-04-25T06:11:00;10.50;99.90
33761;DHT22;20084;47.912;19.044;2023-04-25T06:13:25;10.60;99.90
33761;DHT22;20084;47.912;19.044;2023-04-25T06:15:51;10.50;99.90
33761;DHT22;20084;47.912;19.044;2023-04-25T06:18:16;10.50;99.90
33761;DHT22;20084;47.912;19.044;2023-04-25T06:20:42;10.50;99.90
33761;DHT22;20084;47.912;19.044;2023-04-25T06:23:07;10.50;99.90
33761;DHT22;20084;47.912;19.044;2023-04-25T06:25:33;10.60;99.90
33761;DHT22;20084;47.912;19.044;2023-04-25T06:27:58;10.60;99.90
33761;DHT22;20084;47.912;19.044;2023-04-25T06:30:24;10.60;99.90
33761;DHT22;20084;47.912;19.044;2023-04-25T06:32:51;10.60;99.90
33761;DHT22;20084;47.912;19.044;2023-04-25T06:35:17;10.60;99.90
33761;DHT22;20084;47.912;19.044;2023-04-25T06:37:42;10.60;99.90
33761;DHT22;20084;47.912;19.044;2023-04-25T06:40:08;10.60;99.90
33761;DHT22;20084;47.912;19.044;2023-04-25T06:42:33;10.70;99.90
33761;DHT22;20084;47.912;19.044;2023-04-25T06:44:59;10.70;99.90
33761;DHT22;20084;47.912;19.044;2023-04-25T06:47:24;10.70;99.90
33761;DHT22;20084;47.912;19.044;2023-04-25T06:49:50;10.70;99.90
33761;DHT22;20084;47.912;19.044;2023-04-25T06:52:15;10.70;99.90
33761;DHT22;20084;47.912;19.044;2023-04-25T06:54:43;10.70;99.90
33761;DHT22;20084;47.912;19.044;2023-04-25T06:57:08;10.80;99.90
33761;DHT22;20084;47.912;19.044;2023-04-25T06:59:34;10.70;99.90
33761;DHT22;20084;47.912;19.044;2023-04-25T07:01:59;10.80;99.90
33761;DHT22;20084;47.912;19.044;2023-04-25T07:04:25;10.70;99.90
33761;DHT22;20084;47.912;19.044;2023-04-25T07:06:51;10.80;99.90
33761;DHT22;20084;47.912;19.044;2023-04-25T07:09:16;10.80;99.90
33761;DHT22;20084;47.912;19.044;2023-04-25T07:11:42;10.90;99.90
33761;DHT22;20084;47.912;19.044;2023-04-25T07:14:07;11.00;99.90
33761;DHT22;20084;47.912;19.044;2023-04-25T07:16:33;11.00;99.90
33761;DHT22;20084;47.912;19.044;2023-04-25T07:18:58;11.20;99.90
33761;DHT22;20084;47.912;19.044;2023-04-25T07:21:24;11.20;99.90
33761;DHT22;20084;47.912;19.044;2023-04-25T07:23:50;11.20;99.90
33761;DHT22;20084;47.912;19.044;2023-04-25T07:26:16;11.40;99.90
33761;DHT22;20084;47.912;19.044;2023-04-25T07:28:41;11.40;99.90
33761;DHT22;20084;47.912;19.044;2023-04-25T07:31:07;11.30;99.90
33761;DHT22;20084;47.912;19.044;2023-04-25T07:33:33;11.40;99.90
33761;DHT22;20084;47.912;19.044;2023-04-25T07:35:58;11.50;99.90
33761;DHT22;20084;47.912;19.044;2023-04-25T07:38:24;11.50;99.90
33761;DHT22;20084;47.912;19.044;2023-04-25T07:40:49;11.60;99.90
33761;DHT22;20084;47.912;19.044;2023-04-25T07:43:15;11.70;99.90
33761;DHT22;20084;47.912;19.044;2023-04-25T07:45:45;11.70;99.90
33761;DHT22;20084;47.912;19.044;2023-04-25T07:48:11;11.70;99.90
33761;DHT22;20084;47.912;19.044;2023-04-25T07:50:36;11.80;99.90
33761;DHT22;20084;47.912;19.044;2023-04-25T07:53:02;11.80;99.90
33761;DHT22;20084;47.912;19.044;2023-04-25T07:55:27;11.90;99.90
33761;DHT22;20084;47.912;19.044;2023-04-25T07:57:53;11.90;99.90
33761;DHT22;20084;47.912;19.044;2023-04-25T08:00:19;12.00;99.90
33761;DHT22;20084;47.912;19.044;2023-04-25T08:02:44;12.10;99.90
33761;DHT22;20084;47.912;19.044;2023-04-25T08:05:10;12.10;99.90
33761;DHT22;20084;47.912;19.044;2023-04-25T08:07:37;12.10;99.90
33761;DHT22;20084;47.912;19.044;2023-04-25T08:10:04;12.00;99.90
33761;DHT22;20084;47.912;19.044;2023-04-25T08:12:30;12.00;99.90
33761;DHT22;20084;47.912;19.044;2023-04-25T08:14:55;12.00;99.90
33761;DHT22;20084;47.912;19.044;2023-04-25T08:17:21;12.10;99.90
33761;DHT22;20084;47.912;19.044;2023-04-25T08:19:46;12.20;99.90
33761;DHT22;20084;47.912;19.044;2023-04-25T08:22:12;12.20;99.90
33761;DHT22;20084;47.912;19.044;2023-04-25T08:24:38;12.20;99.90
33761;DHT22;20084;47.912;19.044;2023-04-25T08:27:03;12.20;99.90
33761;DHT22;20084;47.912;19.044;2023-04-25T08:29:29;12.20;99.90
33761;DHT22;20084;47.912;19.044;2023-04-25T08:31:54;12.30;99.90
33761;DHT22;20084;47.912;19.044;2023-04-25T08:34:20;12.40;99.90
33761;DHT22;20084;47.912;19.044;2023-04-25T08:36:45;12.40;99.90
33761;DHT22;20084;47.912;19.044;2023-04-25T08:39:11;12.40;99.90
33761;DHT22;20084;47.912;19.044;2023-04-25T08:41:37;12.50;99.90
33761;DHT22;20084;47.912;19.044;2023-04-25T08:44:02;12.50;99.90
33761;DHT22;20084;47.912;19.044;2023-04-25T08:46:28;12.70;99.90
33761;DHT22;20084;47.912;19.044;2023-04-25T08:48:54;12.90;99.90
33761;DHT22;20084;47.912;19.044;2023-04-25T08:51:22;12.80;99.90
33761;DHT22;20084;47.912;19.044;2023-04-25T08:53:50;12.70;99.90
33761;DHT22;20084;47.912;19.044;2023-04-25T08:56:16;12.50;99.90
33761;DHT22;20084;47.912;19.044;2023-04-25T08:58:51;12.50;99.90
33761;DHT22;20084;47.912;19.044;2023-04-25T09:01:17;12.60;99.90
33761;DHT22;20084;47.912;19.044;2023-04-25T09:03:44;12.70;99.90
33761;DHT22;20084;47.912;19.044;2023-04-25T09:06:13;12.70;99.90
33761;DHT22;20084;47.912;19.044;2023-04-25T09:08:38;12.70;99.90
33761;DHT22;20084;47.912;19.044;2023-04-25T09:11:06;12.80;99.90
33761;DHT22;20084;47.912;19.044;2023-04-25T09:13:32;12.80;99.90
33761;DHT22;20084;47.912;19.044;2023-04-25T09:15:58;12.90;99.90
33761;DHT22;20084;47.912;19.044;2023-04-25T09:20:55;13.00;99.90
33761;DHT22;20084;47.912;19.044;2023-04-25T09:23:21;13.00;99.90
33761;DHT22;20084;47.912;19.044;2023-04-25T09:25:51;12.80;99.90
33761;DHT22;20084;47.912;19.044;2023-04-25T09:28:19;12.80;99.90
33761;DHT22;20084;47.912;19.044;2023-04-25T09:30:48;12.90;99.90
33761;DHT22;20084;47.912;19.044;2023-04-25T09:33:13;12.90;99.90
33761;DHT22;20084;47.912;19.044;2023-04-25T09:35:40;12.90;99.90
33761;DHT22;20084;47.912;19.044;2023-04-25T09:38:13;12.90;99.90
33761;DHT22;20084;47.912;19.044;2023-04-25T09:40:39;12.90;99.90
33761;DHT22;20084;47.912;19.044;2023-04-25T09:43:08;12.90;99.90
33761;DHT22;20084;47.912;19.044;2023-04-25T09:45:42;12.80;99.90
33761;DHT22;20084;47.912;19.044;2023-04-25T09:48:11;12.90;99.90
33761;DHT22;20084;47.912;19.044;2023-04-25T09:50:37;13.10;99.90
33761;DHT22;20084;47.912;19.044;2023-04-25T09:53:03;13.30;99.90
33761;DHT22;20084;47.912;19.044;2023-04-25T09:55:31;13.30;99.90
33761;DHT22;20084;47.912;19.044;2023-04-25T09:57:57;13.20;99.90
33761;DHT22;20084;47.912;19.044;2023-04-25T10:00:25;13.20;99.90
33761;DHT22;20084;47.912;19.044;2023-04-25T10:02:50;13.10;99.90
33761;DHT22;20084;47.912;19.044;2023-04-25T10:05:17;12.90;99.90
33761;DHT22;20084;47.912;19.044;2023-04-25T10:07:42;12.80;99.90
33761;DHT22;20084;47.912;19.044;2023-04-25T10:10:08;12.80;99.90
33761;DHT22;20084;47.912;19.044;2023-04-25T10:12:35;12.90;99.90
33761;DHT22;20084;47.912;19.044;2023-04-25T10:15:01;12.90;99.90
33761;DHT22;20084;47.912;19.044;2023-04-25T10:17:27;12.90;99.90
33761;DHT22;20084;47.912;19.044;2023-04-25T10:19:54;12.90;99.90
33761;DHT22;20084;47.912;19.044;2023-04-25T10:22:31;13.00;99.90
33761;DHT22;20084;47.912;19.044;2023-04-25T10:24:58;13.10;99.90
33761;DHT22;20084;47.912;19.044;2023-04-25T10:27:23;13.10;99.90
33761;DHT22;20084;47.912;19.044;2023-04-25T10:30:05;13.00;99.90
33761;DHT22;20084;47.912;19.044;2023-04-25T10:32:31;13.00;99.90
33761;DHT22;20084;47.912;19.044;2023-04-25T10:38:05;13.10;99.90
33761;DHT22;20084;47.912;19.044;2023-04-25T10:40:31;13.00;99.90
33761;DHT22;20084;47.912;19.044;2023-04-25T10:43:33;12.90;99.90
33761;DHT22;20084;47.912;19.044;2023-04-25T10:45:52;12.80;99.90
33761;DHT22;20084;47.912;19.044;2023-04-25T10:48:30;12.80;99.90
33761;DHT22;20084;47.912;19.044;2023-04-25T10:51:11;12.90;99.90
33761;DHT22;20084;47.912;19.044;2023-04-25T10:53:37;13.00;99.90
33761;DHT22;20084;47.912;19.044;2023-04-25T10:56:09;13.00;99.90
33761;DHT22;20084;47.912;19.044;2023-04-25T10:58:34;13.00;99.90
33761;DHT22;20084;47.912;19.044;2023-04-25T11:01:00;13.10;99.90
33761;DHT22;20084;47.912;19.044;2023-04-25T11:03:26;13.20;99.90
33761;DHT22;20084;47.912;19.044;2023-04-25T11:05:52;13.30;99.90
33761;DHT22;20084;47.912;19.044;2023-04-25T11:08:20;13.40;99.90
33761;DHT22;20084;47.912;19.044;2023-04-25T11:10:51;13.50;99.90
33761;DHT22;20084;47.912;19.044;2023-04-25T11:13:16;13.60;99.90
33761;DHT22;20084;47.912;19.044;2023-04-25T11:15:43;13.50;99.90
33761;DHT22;20084;47.912;19.044;2023-04-25T11:18:08;13.50;99.90
33761;DHT22;20084;47.912;19.044;2023-04-25T11:20:34;13.70;99.90
33761;DHT22;20084;47.912;19.044;2023-04-25T11:23:00;13.60;99.90
33761;DHT22;20084;47.912;19.044;2023-04-25T11:25:26;13.60;99.90
33761;DHT22;20084;47.912;19.044;2023-04-25T11:27:55;13.60;99.90
33761;DHT22;20084;47.912;19.044;2023-04-25T11:30:22;13.60;99.90
33761;DHT22;20084;47.912;19.044;2023-04-25T11:32:48;13.70;99.90
33761;DHT22;20084;47.912;19.044;2023-04-25T11:35:14;13.80;99.90
33761;DHT22;20084;47.912;19.044;2023-04-25T11:37:40;14.10;99.90
33761;DHT22;20084;47.912;19.044;2023-04-25T11:40:07;14.10;99.90
33761;DHT22;20084;47.912;19.044;2023-04-25T11:42:34;14.00;99.90
33761;DHT22;20084;47.912;19.044;2023-04-25T11:44:59;14.00;99.90
33761;DHT22;20084;47.912;19.044;2023-04-25T11:47:29;14.00;99.90
33761;DHT22;20084;47.912;19.044;2023-04-25T11:49:55;14.00;99.90
33761;DHT22;20084;47.912;19.044;2023-04-25T11:52:20;14.00;99.90
33761;DHT22;20084;47.912;19.044;2023-04-25T11:54:46;14.00;99.90
33761;DHT22;20084;47.912;19.044;2023-04-25T11:57:11;14.00;99.90
33761;DHT22;20084;47.912;19.044;2023-04-25T11:59:37;14.00;99.90
33761;DHT22;20084;47.912;19.044;2023-04-25T12:02:02;13.90;99.90
33761;DHT22;20084;47.912;19.044;2023-04-25T12:04:29;13.80;99.90
33761;DHT22;20084;47.912;19.044;2023-04-25T12:06:55;13.80;99.90
33761;DHT22;20084;47.912;19.044;2023-04-25T12:09:27;13.80;99.90
33761;DHT22;20084;47.912;19.044;2023-04-25T12:11:53;13.80;99.90
33761;DHT22;20084;47.912;19.044;2023-04-25T12:14:22;13.90;99.90
33761;DHT22;20084;47.912;19.044;2023-04-25T12:16:49;14.10;99.90
33761;DHT22;20084;47.912;19.044;2023-04-25T12:19:15;14.10;99.90
33761;DHT22;20084;47.912;19.044;2023-04-25T12:21:41;14.10;99.90
33761;DHT22;20084;47.912;19.044;2023-04-25T12:24:15;14.30;99.90
33761;DHT22;20084;47.912;19.044;2023-04-25T12:29:23;14.30;99.90
33761;DHT22;20084;47.912;19.044;2023-04-25T12:31:49;14.20;99.90
33761;DHT22;20084;47.912;19.044;2023-04-25T12:34:16;14.10;99.90
33761;DHT22;20084;47.912;19.044;2023-04-25T12:36:42;14.10;99.90
33761;DHT22;20084;47.912;19.044;2023-04-25T12:39:08;14.20;99.90
33761;DHT22;20084;47.912;19.044;2023-04-25T12:41:34;14.30;99.90
33761;DHT22;20084;47.912;19.044;2023-04-25T12:43:59;14.40;99.90
33761;DHT22;20084;47.912;19.044;2023-04-25T12:46:25;14.30;99.90
33761;DHT22;20084;47.912;19.044;2023-04-25T12:48:50;14.30;99.90
33761;DHT22;20084;47.912;19.044;2023-04-25T12:51:16;14.40;99.90
33761;DHT22;20084;47.912;19.044;2023-04-25T12:53:41;14.50;99.90
33761;DHT22;20084;47.912;19.044;2023-04-25T12:56:07;14.70;99.90
33761;DHT22;20084;47.912;19.044;2023-04-25T12:58:33;14.70;99.90
33761;DHT22;20084;47.912;19.044;2023-04-25T13:00:59;14.80;99.90
33761;DHT22;20084;47.912;19.044;2023-04-25T13:03:24;14.90;99.90
33761;DHT22;20084;47.912;19.044;2023-04-25T13:05:51;15.00;99.90
33761;DHT22;20084;47.912;19.044;2023-04-25T13:08:18;15.10;99.90
33761;DHT22;20084;47.912;19.044;2023-04-25T13:10:43;15.30;99.90
33761;DHT22;20084;47.912;19.044;2023-04-25T13:13:09;15.40;99.90
33761;DHT22;20084;47.912;19.044;2023-04-25T13:15:34;15.50;99.90
33761;DHT22;20084;47.912;19.044;2023-04-25T13:18:00;15.60;99.90
33761;DHT22;20084;47.912;19.044;2023-04-25T13:20:26;15.70;99.90
33761;DHT22;20084;47.912;19.044;2023-04-25T13:22:51;15.90;99.90
33761;DHT22;20084;47.912;19.044;2023-04-25T13:25:17;15.90;99.90
33761;DHT22;20084;47.912;19.044;2023-04-25T13:27:42;15.90;99.90
33761;DHT22;20084;47.912;19.044;2023-04-25T13:30:09;15.70;99.90
33761;DHT22;20084;47.912;19.044;2023-04-25T13:32:37;15.60;99.90
33761;DHT22;20084;47.912;19.044;2023-04-25T13:35:04;15.50;99.90
33761;DHT22;20084;47.912;19.044;2023-04-25T13:37:30;15.60;99.90
33761;DHT22;20084;47.912;19.044;2023-04-25T13:39:59;15.80;99.90
33761;DHT22;20084;47.912;19.044;2023-04-25T13:42:24;16.10;99.90
33761;DHT22;20084;47.912;19.044;2023-04-25T13:44:50;16.20;99.90
33761;DHT22;20084;47.912;19.044;2023-04-25T13:47:15;16.20;99.90
33761;DHT22;20084;47.912;19.044;2023-04-25T13:49:41;16.00;99.90
33761;DHT22;20084;47.912;19.044;2023-04-25T13:52:06;16.00;99.90
33761;DHT22;20084;47.912;19.044;2023-04-25T13:54:33;16.00;99.90
33761;DHT22;20084;47.912;19.044;2023-04-25T13:56:58;16.10;99.90
33761;DHT22;20084;47.912;19.044;2023-04-25T13:59:24;16.10;99.90
33761;DHT22;20084;47.912;19.044;2023-04-25T14:01:51;16.10;99.90
33761;DHT22;20084;47.912;19.044;2023-04-25T14:04:16;16.20;99.90
33761;DHT22;20084;47.912;19.044;2023-04-25T14:06:42;16.20;99.90
33761;DHT22;20084;47.912;19.044;2023-04-25T14:09:07;16.20;99.90
33761;DHT22;20084;47.912;19.044;2023-04-25T14:11:38;16.10;99.90
33761;DHT22;20084;47.912;19.044;2023-04-25T14:14:04;16.00;99.90
33761;DHT22;20084;47.912;19.044;2023-04-25T14:16:30;16.20;99.90
33761;DHT22;20084;47.912;19.044;2023-04-25T14:18:59;16.40;99.90
33761;DHT22;20084;47.912;19.044;2023-04-25T14:21:25;16.40;99.90
33761;DHT22;20084;47.912;19.044;2023-04-25T14:23:52;16.40;99.90
33761;DHT22;20084;47.912;19.044;2023-04-25T14:26:17;16.20;99.80
33761;DHT22;20084;47.912;19.044;2023-04-25T14:28:43;16.20;99.90
33761;DHT22;20084;47.912;19.044;2023-04-25T14:31:08;16.20;99.90
33761;DHT22;20084;47.912;19.044;2023-04-25T14:33:34;16.40;99.90
33761;DHT22;20084;47.912;19.044;2023-04-25T14:36:00;16.40;97.90
33761;DHT22;20084;47.912;19.044;2023-04-25T14:38:25;16.50;99.10
33761;DHT22;20084;47.912;19.044;2023-04-25T14:40:52;16.50;96.40
33761;DHT22;20084;47.912;19.044;2023-04-25T14:43:19;16.10;97.20
33761;DHT22;20084;47.912;19.044;2023-04-25T14:45:44;16.10;99.50
33761;DHT22;20084;47.912;19.044;2023-04-25T14:48:10;16.30;99.50
33761;DHT22;20084;47.912;19.044;2023-04-25T14:50:35;16.40;95.80
33761;DHT22;20084;47.912;19.044;2023-04-25T14:53:01;16.50;98.10
33761;DHT22;20084;47.912;19.044;2023-04-25T14:55:27;16.50;96.90
33761;DHT22;20084;47.912;19.044;2023-04-25T14:57:53;16.50;98.30
33761;DHT22;20084;47.912;19.044;2023-04-25T15:00:19;16.50;96.40
33761;DHT22;20084;47.912;19.044;2023-04-25T15:02:45;16.50;96.70
33761;DHT22;20084;47.912;19.044;2023-04-25T15:05:12;16.60;96.80
33761;DHT22;20084;47.912;19.044;2023-04-25T15:07:38;16.60;95.50
33761;DHT22;20084;47.912;19.044;2023-04-25T15:10:08;16.50;93.90
33761;DHT22;20084;47.912;19.044;2023-04-25T15:12:39;16.50;94.60
33761;DHT22;20084;47.912;19.044;2023-04-25T15:15:04;16.40;92.20
33761;DHT22;20084;47.912;19.044;2023-04-25T15:17:31;16.20;92.60